sensor_id;sensor_type;location;lat;lon;timestamp;pressure;altitude;pressure_sealevel;temperature;humidity
27958;BME280;15295;42.658;23.374;2023-01-27T00:00:54;93732.69;;;6.06;57.53
27958;BME280;15295;42.658;23.374;2023-01-27T00:03:20;93733.47;;;6.07;57.42
27958;BME280;15295;42.658;23.374;2023-01-27T00:05:46;93709.44;;;5.84;57.37
27958;BME280;15295;42.658;23.374;2023-01-27T00:08:11;93748.97;;;6.13;57.53
27958;BME280;15295;42.658;23.374;2023-01-27T00:10:39;93738.47;;;6.19;57.40
27958;BME280;15295;42.658;23.374;2023-01-27T00:13:05;93739.66;;;6.21;57.88
27958;BME280;15295;42.658;23.374;2023-01-27T00:15:49;93721.06;;;6.13;57.32
27958;BME280;15295;42.658;23.374;2023-01-27T00:18:14;93734.22;;;6.21;57.62
27958;BME280;15295;42.658;23.374;2023-01-27T00:20:40;93732.69;;;6.24;57.56
27958;BME280;15295;42.658;23.374;2023-01-27T00:23:26;93723.34;;;6.32;57.38
27958;BME280;15295;42.658;23.374;2023-01-27T00:26:14;93718.72;;;6.26;57.40
27958;BME280;15295;42.658;23.374;2023-01-27T00:28:45;93713.69;;;6.24;57.31
27958;BME280;15295;42.658;23.374;2023-01-27T00:31:14;93709.44;;;6.19;57.30
27958;BME280;15295;42.658;23.374;2023-01-27T00:33:58;93700.13;;;6.13;57.33
27958;BME280;15295;42.658;23.374;2023-01-27T00:36:34;93721.44;;;6.26;57.71
27958;BME280;15295;42.658;23.374;2023-01-27T00:39:00;93709.00;;;6.24;57.35
27958;BME280;15295;42.658;23.374;2023-01-27T00:41:26;93692.38;;;6.19;57.51
27958;BME280;15295;42.658;23.374;2023-01-27T00:43:53;93708.63;;;6.22;57.43
27958;BME280;15295;42.658;23.374;2023-01-27T00:46:23;93711.72;;;6.24;57.26
27958;BME280;15295;42.658;23.374;2023-01-27T00:48:49;93704.00;;;6.19;57.47
27958;BME280;15295;42.658;23.374;2023-01-27T00:51:16;93723.75;;;6.16;57.41
27958;BME280;15295;42.658;23.374;2023-01-27T00:53:42;93729.16;;;6.27;57.59
27958;BME280;15295;42.658;23.374;2023-01-27T00:56:07;93723.34;;;6.25;57.59
27958;BME280;15295;42.658;23.374;2023-01-27T00:58:33;93707.47;;;6.23;57.33
27958;BME280;15295;42.658;23.374;2023-01-27T01:01:02;93723.34;;;6.32;57.45
27958;BME280;15295;42.658;23.374;2023-01-27T01:03:29;93706.28;;;6.32;57.03
27958;BME280;15295;42.658;23.374;2023-01-27T01:06:15;93724.88;;;6.47;57.29
27958;BME280;15295;42.658;23.374;2023-01-27T01:08:41;93677.63;;;6.23;57.18
27958;BME280;15295;42.658;23.374;2023-01-27T01:11:09;93715.91;;;6.57;57.09
27958;BME280;15295;42.658;23.374;2023-01-27T01:13:37;93704.72;;;6.45;56.80
27958;BME280;15295;42.658;23.374;2023-01-27T01:16:32;93710.88;;;6.52;56.64
27958;BME280;15295;42.658;23.374;2023-01-27T01:18:58;93722.53;;;6.53;56.55
27958;BME280;15295;42.658;23.374;2023-01-27T01:21:23;93708.63;;;6.37;56.37
27958;BME280;15295;42.658;23.374;2023-01-27T01:23:49;93710.19;;;6.27;56.35
27958;BME280;15295;42.658;23.374;2023-01-27T01:26:33;93716.75;;;6.30;56.85
27958;BME280;15295;42.658;23.374;2023-01-27T01:28:58;93694.28;;;6.29;56.97
27958;BME280;15295;42.658;23.374;2023-01-27T01:31:23;93688.47;;;6.34;56.88
27958;BME280;15295;42.658;23.374;2023-01-27T01:33:51;93714.38;;;6.53;56.70
27958;BME280;15295;42.658;23.374;2023-01-27T01:36:37;93729.50;;;6.50;56.47
27958;BME280;15295;42.658;23.374;2023-01-27T01:39:03;93733.78;;;6.44;56.52
27958;BME280;15295;42.658;23.374;2023-01-27T01:41:28;93744.25;;;6.42;56.40
27958;BME280;15295;42.658;23.374;2023-01-27T01:43:54;93740.00;;;6.38;56.27
27958;BME280;15295;42.658;23.374;2023-01-27T01:46:19;93731.47;;;6.36;56.59
27958;BME280;15295;42.658;23.374;2023-01-27T01:49:08;93708.59;;;6.33;56.70
27958;BME280;15295;42.658;23.374;2023-01-27T01:51:43;93729.13;;;6.55;56.74
27958;BME280;15295;42.658;23.374;2023-01-27T01:54:17;93706.63;;;6.55;56.56
27958;BME280;15295;42.658;23.374;2023-01-27T01:57:00;93703.91;;;6.58;56.42
27958;BME280;15295;42.658;23.374;2023-01-27T01:59:35;93686.88;;;6.47;56.57
27958;BME280;15295;42.658;23.374;2023-01-27T02:02:05;93695.38;;;6.56;56.38
27958;BME280;15295;42.658;23.374;2023-01-27T02:07:25;93649.72;;;6.37;56.08
27958;BME280;15295;42.658;23.374;2023-01-27T02:09:53;93673.72;;;6.46;56.42
27958;BME280;15295;42.658;23.374;2023-01-27T02:12:20;93673.28;;;6.51;56.53
27958;BME280;15295;42.658;23.374;2023-01-27T02:14:46;93646.59;;;6.39;56.60
27958;BME280;15295;42.658;23.374;2023-01-27T02:17:12;93667.06;;;6.57;56.75
27958;BME280;15295;42.658;23.374;2023-01-27T02:20:04;93667.09;;;6.54;56.60
27958;BME280;15295;42.658;23.374;2023-01-27T02:22:38;93664.38;;;6.47;56.91
27958;BME280;15295;42.658;23.374;2023-01-27T02:25:22;93664.00;;;6.45;57.08
27958;BME280;15295;42.658;23.374;2023-01-27T02:27:53;93662.06;;;6.49;57.19
27958;BME280;15295;42.658;23.374;2023-01-27T02:30:26;93660.13;;;6.49;56.93
27958;BME280;15295;42.658;23.374;2023-01-27T02:32:52;93661.28;;;6.52;56.89
27958;BME280;15295;42.658;23.374;2023-01-27T02:36:01;93659.38;;;6.45;56.92
27958;BME280;15295;42.658;23.374;2023-01-27T02:38:26;93652.00;;;6.35;56.97
27958;BME280;15295;42.658;23.374;2023-01-27T02:40:56;93638.09;;;6.26;57.01
27958;BME280;15295;42.658;23.374;2023-01-27T02:43:24;93657.41;;;6.42;57.29
27958;BME280;15295;42.658;23.374;2023-01-27T02:45:54;93667.06;;;6.50;57.07
27958;BME280;15295;42.658;23.374;2023-01-27T02:48:19;93667.84;;;6.51;57.31
27958;BME280;15295;42.658;23.374;2023-01-27T02:50:45;93677.16;;;6.60;57.10
27958;BME280;15295;42.658;23.374;2023-01-27T02:56:25;93680.25;;;6.55;56.77
27958;BME280;15295;42.658;23.374;2023-01-27T02:58:52;93667.50;;;6.42;56.68
27958;BME280;15295;42.658;23.374;2023-01-27T03:01:23;93664.41;;;6.43;56.94
27958;BME280;15295;42.658;23.374;2023-01-27T03:03:49;93670.59;;;6.44;56.94
27958;BME280;15295;42.658;23.374;2023-01-27T03:06:30;93660.53;;;6.41;56.46
27958;BME280;15295;42.658;23.374;2023-01-27T03:08:56;93642.72;;;6.29;56.60
27958;BME280;15295;42.658;23.374;2023-01-27T03:11:21;93647.41;;;6.29;56.38
27958;BME280;15295;42.658;23.374;2023-01-27T03:14:06;93644.31;;;6.23;56.30
27958;BME280;15295;42.658;23.374;2023-01-27T03:20:22;93644.31;;;6.23;56.74
27958;BME280;15295;42.658;23.374;2023-01-27T03:22:48;93629.97;;;6.22;56.76
27958;BME280;15295;42.658;23.374;2023-01-27T03:25:14;93636.16;;;6.27;56.94
27958;BME280;15295;42.658;23.374;2023-01-27T03:27:41;93614.09;;;6.14;57.08
27958;BME280;15295;42.658;23.374;2023-01-27T03:30:07;93624.91;;;6.24;56.89
27958;BME280;15295;42.658;23.374;2023-01-27T03:32:34;93620.28;;;6.29;57.19
27958;BME280;15295;42.658;23.374;2023-01-27T03:34:59;93600.13;;;6.22;56.96
27958;BME280;15295;42.658;23.374;2023-01-27T03:37:45;93604.75;;;6.29;57.16
27958;BME280;15295;42.658;23.374;2023-01-27T03:40:40;93585.03;;;6.21;57.28
27958;BME280;15295;42.658;23.374;2023-01-27T03:43:24;93586.59;;;6.12;57.07
27958;BME280;15295;42.658;23.374;2023-01-27T03:46:14;93593.97;;;6.11;57.46
27958;BME280;15295;42.658;23.374;2023-01-27T03:48:46;93581.59;;;6.07;57.16
27958;BME280;15295;42.658;23.374;2023-01-27T03:51:12;93581.63;;;5.96;57.73
27958;BME280;15295;42.658;23.374;2023-01-27T03:53:37;93590.09;;;6.05;57.85
27958;BME280;15295;42.658;23.374;2023-01-27T03:56:03;93594.75;;;6.15;57.67
27958;BME280;15295;42.658;23.374;2023-01-27T03:58:34;93596.69;;;6.08;57.52
27958;BME280;15295;42.658;23.374;2023-01-27T04:01:05;93590.09;;;6.05;57.85
27958;BME280;15295;42.658;23.374;2023-01-27T04:03:51;93614.50;;;6.12;57.87
27958;BME280;15295;42.658;23.374;2023-01-27T04:06:57;93637.75;;;6.13;57.73
27958;BME280;15295;42.658;23.374;2023-01-27T04:09:45;93629.63;;;5.99;57.74
27958;BME280;15295;42.658;23.374;2023-01-27T04:12:10;93640.47;;;6.06;57.66
27958;BME280;15295;42.658;23.374;2023-01-27T04:14:37;93666.03;;;6.12;57.53
27958;BME280;15295;42.658;23.374;2023-01-27T04:17:17;93663.72;;;6.11;57.71
27958;BME280;15295;42.658;23.374;2023-01-27T04:19:44;93671.84;;;6.14;57.83
27958;BME280;15295;42.658;23.374;2023-01-27T04:22:14;93661.38;;;6.20;57.77
27958;BME280;15295;42.658;23.374;2023-01-27T04:24:40;93660.19;;;6.24;57.47
27958;BME280;15295;42.658;23.374;2023-01-27T04:27:15;93663.69;;;6.25;57.52
27958;BME280;15295;42.658;23.374;2023-01-27T04:29:44;93672.19;;;6.27;57.24
27958;BME280;15295;42.658;23.374;2023-01-27T04:32:15;93692.38;;;6.19;57.07
27958;BME280;15295;42.658;23.374;2023-01-27T04:34:43;93690.03;;;6.21;57.36
27958;BME280;15295;42.658;23.374;2023-01-27T04:37:09;93676.47;;;6.21;57.36
27958;BME280;15295;42.658;23.374;2023-01-27T04:39:35;93683.06;;;6.31;57.56
27958;BME280;15295;42.658;23.374;2023-01-27T04:42:01;93684.22;;;6.26;57.51
27958;BME280;15295;42.658;23.374;2023-01-27T04:44:27;93656.00;;;6.02;57.38
27958;BME280;15295;42.658;23.374;2023-01-27T04:46:53;93681.91;;;6.28;57.38
27958;BME280;15295;42.658;23.374;2023-01-27T04:49:27;93670.66;;;6.26;57.58
27958;BME280;15295;42.658;23.374;2023-01-27T04:51:53;93688.06;;;6.36;57.65
27958;BME280;15295;42.658;23.374;2023-01-27T04:54:20;93693.09;;;6.41;57.49
27958;BME280;15295;42.658;23.374;2023-01-27T04:57:13;93676.84;;;6.34;57.61
27958;BME280;15295;42.658;23.374;2023-01-27T04:59:38;93683.81;;;6.35;57.59
27958;BME280;15295;42.658;23.374;2023-01-27T05:02:13;93702.78;;;6.45;57.68
27958;BME280;15295;42.658;23.374;2023-01-27T05:04:38;93700.84;;;6.49;57.81
27958;BME280;15295;42.658;23.374;2023-01-27T05:07:03;93682.97;;;6.48;57.61
27958;BME280;15295;42.658;23.374;2023-01-27T05:09:34;93689.19;;;6.56;57.32
27958;BME280;15295;42.658;23.374;2023-01-27T05:11:59;93696.16;;;6.60;56.98
27958;BME280;15295;42.658;23.374;2023-01-27T05:14:24;93689.19;;;6.49;56.86
27958;BME280;15295;42.658;23.374;2023-01-27T05:16:50;93670.63;;;6.37;57.05
27958;BME280;15295;42.658;23.374;2023-01-27T05:19:16;93678.38;;;6.35;57.24
27958;BME280;15295;42.658;23.374;2023-01-27T05:21:42;93654.38;;;6.22;57.35
27958;BME280;15295;42.658;23.374;2023-01-27T05:24:09;93676.44;;;6.46;57.30
27958;BME280;15295;42.658;23.374;2023-01-27T05:26:35;93660.16;;;6.46;57.27
27958;BME280;15295;42.658;23.374;2023-01-27T05:29:00;93650.81;;;6.47;57.07
27958;BME280;15295;42.658;23.374;2023-01-27T05:31:28;93656.63;;;6.49;57.21
27958;BME280;15295;42.658;23.374;2023-01-27T05:33:57;93663.22;;;6.51;57.39
27958;BME280;15295;42.658;23.374;2023-01-27T05:36:24;93676.38;;;6.53;57.56
27958;BME280;15295;42.658;23.374;2023-01-27T05:38:54;93666.72;;;6.45;57.31
27958;BME280;15295;42.658;23.374;2023-01-27T05:41:20;93665.56;;;6.49;57.58
27958;BME280;15295;42.658;23.374;2023-01-27T05:43:49;93639.22;;;6.36;57.24
27958;BME280;15295;42.658;23.374;2023-01-27T05:46:17;93634.97;;;6.35;57.28
27958;BME280;15295;42.658;23.374;2023-01-27T05:48:51;93648.50;;;6.42;57.41
27958;BME280;15295;42.658;23.374;2023-01-27T05:51:19;93663.63;;;6.43;57.27
27958;BME280;15295;42.658;23.374;2023-01-27T05:53:45;93661.31;;;6.38;57.62
27958;BME280;15295;42.658;23.374;2023-01-27T05:56:14;93669.88;;;6.33;57.36
27958;BME280;15295;42.658;23.374;2023-01-27T05:58:41;93676.03;;;6.33;57.30
27958;BME280;15295;42.658;23.374;2023-01-27T06:01:11;93678.78;;;6.37;57.70
27958;BME280;15295;42.658;23.374;2023-01-27T06:03:46;93684.97;;;6.37;57.58
27958;BME280;15295;42.658;23.374;2023-01-27T06:06:15;93664.44;;;6.33;57.40
27958;BME280;15295;42.658;23.374;2023-01-27T06:08:42;93672.16;;;6.38;57.78
27958;BME280;15295;42.658;23.374;2023-01-27T06:11:08;93667.53;;;6.38;57.47
27958;BME280;15295;42.658;23.374;2023-01-27T06:13:35;93649.72;;;6.27;57.42
27958;BME280;15295;42.658;23.374;2023-01-27T06:16:08;93653.59;;;6.33;57.58
27958;BME280;15295;42.658;23.374;2023-01-27T06:18:34;93672.16;;;6.38;57.21
27958;BME280;15295;42.658;23.374;2023-01-27T06:21:02;93678.00;;;6.36;57.45
27958;BME280;15295;42.658;23.374;2023-01-27T06:23:28;93680.72;;;6.36;57.44
27958;BME280;15295;42.658;23.374;2023-01-27T06:25:54;93678.00;;;6.33;57.79
27958;BME280;15295;42.658;23.374;2023-01-27T06:28:20;93671.78;;;6.36;57.68
27958;BME280;15295;42.658;23.374;2023-01-27T06:30:50;93677.59;;;6.34;57.14
27958;BME280;15295;42.658;23.374;2023-01-27T06:33:16;93657.50;;;6.17;57.26
27958;BME280;15295;42.658;23.374;2023-01-27T06:35:41;93666.00;;;6.23;57.36
27958;BME280;15295;42.658;23.374;2023-01-27T06:38:09;93676.84;;;6.27;57.49
27958;BME280;15295;42.658;23.374;2023-01-27T06:43:57;93677.63;;;6.23;57.60
27958;BME280;15295;42.658;23.374;2023-01-27T06:46:23;93667.22;;;6.11;57.10
27958;BME280;15295;42.658;23.374;2023-01-27T06:48:50;93690.81;;;6.18;57.19
27958;BME280;15295;42.658;23.374;2023-01-27T06:51:21;93677.69;;;6.02;57.24
27958;BME280;15295;42.658;23.374;2023-01-27T06:53:47;93678.44;;;6.10;56.89
27958;BME280;15295;42.658;23.374;2023-01-27T06:56:12;93684.63;;;6.17;56.81
27958;BME280;15295;42.658;23.374;2023-01-27T06:58:37;93699.34;;;6.23;56.92
27958;BME280;15295;42.658;23.374;2023-01-27T07:01:05;93702.81;;;6.28;56.38
27958;BME280;15295;42.658;23.374;2023-01-27T07:03:31;93683.88;;;6.13;56.87
27958;BME280;15295;42.658;23.374;2023-01-27T07:05:59;93704.38;;;6.32;57.04
27958;BME280;15295;42.658;23.374;2023-01-27T07:08:30;93705.91;;;6.33;56.59
27958;BME280;15295;42.658;23.374;2023-01-27T07:11:09;93706.69;;;6.27;56.49
27958;BME280;15295;42.658;23.374;2023-01-27T07:13:34;93711.72;;;6.32;56.48
27958;BME280;15295;42.658;23.374;2023-01-27T07:16:00;93696.63;;;6.31;56.17
27958;BME280;15295;42.658;23.374;2023-01-27T07:18:27;93694.28;;;6.29;56.39
27958;BME280;15295;42.658;23.374;2023-01-27T07:20:52;93665.25;;;6.19;56.33
27958;BME280;15295;42.658;23.374;2023-01-27T07:23:33;93690.00;;;6.39;55.84
27958;BME280;15295;42.658;23.374;2023-01-27T07:26:02;93684.59;;;6.32;55.93
27958;BME280;15295;42.658;23.374;2023-01-27T07:28:27;93676.84;;;6.27;55.78
27958;BME280;15295;42.658;23.374;2023-01-27T07:31:02;93701.63;;;6.39;55.94
27958;BME280;15295;42.658;23.374;2023-01-27T07:33:28;93693.88;;;6.41;55.96
27958;BME280;15295;42.658;23.374;2023-01-27T07:35:53;93685.34;;;6.36;55.89
27958;BME280;15295;42.658;23.374;2023-01-27T07:38:19;93690.00;;;6.39;55.85
27958;BME280;15295;42.658;23.374;2023-01-27T07:40:55;93691.91;;;6.49;55.89
27958;BME280;15295;42.658;23.374;2023-01-27T07:43:22;93711.66;;;6.53;55.52
27958;BME280;15295;42.658;23.374;2023-01-27T07:45:52;93698.91;;;6.43;55.69
27958;BME280;15295;42.658;23.374;2023-01-27T07:48:19;93688.06;;;6.39;55.67
27958;BME280;15295;42.658;23.374;2023-01-27T07:50:50;93700.06;;;6.49;55.84
27958;BME280;15295;42.658;23.374;2023-01-27T07:53:16;93682.25;;;6.41;55.84
27958;BME280;15295;42.658;23.374;2023-01-27T07:55:41;93715.53;;;6.59;55.82
27958;BME280;15295;42.658;23.374;2023-01-27T07:58:07;93700.44;;;6.47;55.62
27958;BME280;15295;42.658;23.374;2023-01-27T08:00:32;93693.44;;;6.60;55.80
27958;BME280;15295;42.658;23.374;2023-01-27T08:02:59;93709.25;;;6.76;55.24
27958;BME280;15295;42.658;23.374;2023-01-27T08:05:25;93706.59;;;6.69;55.50
27958;BME280;15295;42.658;23.374;2023-01-27T08:07:53;93715.47;;;6.76;55.64
27958;BME280;15295;42.658;23.374;2023-01-27T08:10:40;93716.22;;;6.80;55.59
27958;BME280;15295;42.658;23.374;2023-01-27T08:13:11;93704.63;;;6.73;55.54
27958;BME280;15295;42.658;23.374;2023-01-27T08:15:36;93707.34;;;6.73;55.29
27958;BME280;15295;42.658;23.374;2023-01-27T08:18:15;93689.91;;;6.63;55.42
27958;BME280;15295;42.658;23.374;2023-01-27T08:20:44;93698.44;;;6.69;55.47
27958;BME280;15295;42.658;23.374;2023-01-27T08:23:13;93702.69;;;6.70;55.54
27958;BME280;15295;42.658;23.374;2023-01-27T08:25:40;93713.16;;;6.68;55.44
27958;BME280;15295;42.658;23.374;2023-01-27T08:28:05;93707.75;;;6.68;55.47
27958;BME280;15295;42.658;23.374;2023-01-27T08:30:31;93683.75;;;6.56;55.58
27958;BME280;15295;42.658;23.374;2023-01-27T08:32:56;93683.72;;;6.63;55.54
27958;BME280;15295;42.658;23.374;2023-01-27T08:35:21;93688.38;;;6.62;55.11
27958;BME280;15295;42.658;23.374;2023-01-27T08:37:47;93705.41;;;6.73;55.13
27958;BME280;15295;42.658;23.374;2023-01-27T08:40:13;93712.41;;;6.64;54.87
27958;BME280;15295;42.658;23.374;2023-01-27T08:42:38;93727.53;;;6.61;55.30
27958;BME280;15295;42.658;23.374;2023-01-27T08:45:04;93709.75;;;6.50;55.12
27958;BME280;15295;42.658;23.374;2023-01-27T08:47:29;93709.38;;;6.48;54.88
27958;BME280;15295;42.658;23.374;2023-01-27T08:50:09;93718.25;;;6.55;55.26
27958;BME280;15295;42.658;23.374;2023-01-27T08:52:35;93709.75;;;6.43;55.29
27958;BME280;15295;42.658;23.374;2023-01-27T08:55:02;93722.53;;;6.56;55.57
27958;BME280;15295;42.658;23.374;2023-01-27T08:57:28;93715.91;;;6.61;55.31
27958;BME280;15295;42.658;23.374;2023-01-27T08:59:57;93674.47;;;6.50;55.23
27958;BME280;15295;42.658;23.374;2023-01-27T09:02:25;93703.88;;;6.65;55.07
27958;BME280;15295;42.658;23.374;2023-01-27T09:04:54;93715.50;;;6.73;54.98
27958;BME280;15295;42.658;23.374;2023-01-27T09:07:19;93714.31;;;6.74;54.93
27958;BME280;15295;42.658;23.374;2023-01-27T09:09:46;93705.44;;;6.66;54.82
27958;BME280;15295;42.658;23.374;2023-01-27T09:12:14;93699.19;;;6.69;54.94
27958;BME280;15295;42.658;23.374;2023-01-27T09:14:39;93696.88;;;6.68;54.63
27958;BME280;15295;42.658;23.374;2023-01-27T09:17:05;93706.94;;;6.74;54.34
27958;BME280;15295;42.658;23.374;2023-01-27T09:19:30;93699.63;;;6.64;54.04
27958;BME280;15295;42.658;23.374;2023-01-27T09:21:56;93712.03;;;6.69;53.95
27958;BME280;15295;42.658;23.374;2023-01-27T09:24:43;93700.00;;;6.59;54.22
27958;BME280;15295;42.658;23.374;2023-01-27T09:27:08;93702.75;;;6.56;54.29
27958;BME280;15295;42.658;23.374;2023-01-27T09:29:34;93703.16;;;6.54;54.22
27958;BME280;15295;42.658;23.374;2023-01-27T09:32:02;93678.78;;;6.37;54.64
27958;BME280;15295;42.658;23.374;2023-01-27T09:34:28;93679.16;;;6.39;54.41
27958;BME280;15295;42.658;23.374;2023-01-27T09:36:57;93687.28;;;6.35;54.51
27958;BME280;15295;42.658;23.374;2023-01-27T09:39:25;93667.94;;;6.22;55.17
27958;BME280;15295;42.658;23.374;2023-01-27T09:55:38;93661.72;;;6.36;55.65
27958;BME280;15295;42.658;23.374;2023-01-27T10:01:36;93645.03;;;6.38;56.14
27958;BME280;15295;42.658;23.374;2023-01-27T10:28:15;93657.81;;;6.41;56.71
27958;BME280;15295;42.658;23.374;2023-01-27T10:31:07;93644.63;;;6.43;56.50
27958;BME280;15295;42.658;23.374;2023-01-27T10:33:51;93647.34;;;6.50;55.87
27958;BME280;15295;42.658;23.374;2023-01-27T10:39:19;93641.13;;;6.42;55.76
27958;BME280;15295;42.658;23.374;2023-01-27T10:41:59;93633.44;;;6.27;55.71
27958;BME280;15295;42.658;23.374;2023-01-27T10:44:49;93634.22;;;6.27;55.81
27958;BME280;15295;42.658;23.374;2023-01-27T10:50:29;93629.16;;;6.36;55.76
27958;BME280;15295;42.658;23.374;2023-01-27T10:53:23;93639.97;;;6.40;55.56
27958;BME280;15295;42.658;23.374;2023-01-27T11:00:54;93651.59;;;6.44;55.62
27958;BME280;15295;42.658;23.374;2023-01-27T11:03:30;93651.25;;;6.31;55.98
27958;BME280;15295;42.658;23.374;2023-01-27T11:06:16;93629.19;;;6.26;56.18
27958;BME280;15295;42.658;23.374;2023-01-27T11:08:49;93641.19;;;6.32;55.83
27958;BME280;15295;42.658;23.374;2023-01-27T11:11:20;93631.13;;;6.29;56.16
27958;BME280;15295;42.658;23.374;2023-01-27T11:17:26;93625.66;;;6.39;56.19
27958;BME280;15295;42.658;23.374;2023-01-27T11:25:50;93622.94;;;6.36;55.49
27958;BME280;15295;42.658;23.374;2023-01-27T11:28:35;93615.63;;;6.18;55.84
27958;BME280;15295;42.658;23.374;2023-01-27T11:31:10;93619.88;;;6.23;56.02
27958;BME280;15295;42.658;23.374;2023-01-27T11:36:28;93608.66;;;6.14;56.15
27958;BME280;15295;42.658;23.374;2023-01-27T11:38:54;93592.06;;;5.98;56.23
27958;BME280;15295;42.658;23.374;2023-01-27T11:41:22;93596.34;;;5.92;56.28
27958;BME280;15295;42.658;23.374;2023-01-27T11:43:48;93605.59;;;6.01;56.44
27958;BME280;15295;42.658;23.374;2023-01-27T11:46:18;93616.44;;;6.12;56.21
27958;BME280;15295;42.658;23.374;2023-01-27T11:48:48;93597.47;;;6.01;56.49
27958;BME280;15295;42.658;23.374;2023-01-27T11:51:23;93589.34;;;6.01;56.64
27958;BME280;15295;42.658;23.374;2023-01-27T11:56:34;93605.22;;;6.13;56.46
27958;BME280;15295;42.658;23.374;2023-01-27T11:59:24;93590.84;;;6.09;56.49
27958;BME280;15295;42.658;23.374;2023-01-27T12:01:57;93596.66;;;6.18;56.50
27958;BME280;15295;42.658;23.374;2023-01-27T12:04:47;93610.22;;;6.22;56.06
27958;BME280;15295;42.658;23.374;2023-01-27T12:08:07;93604.41;;;6.16;55.84
27958;BME280;15295;42.658;23.374;2023-01-27T12:10:39;93607.13;;;6.16;56.09
27958;BME280;15295;42.658;23.374;2023-01-27T12:13:15;93603.28;;;6.10;56.19
27958;BME280;15295;42.658;23.374;2023-01-27T12:16:11;93607.53;;;6.11;56.29
27958;BME280;15295;42.658;23.374;2023-01-27T12:18:47;93600.94;;;6.05;56.12
27958;BME280;15295;42.658;23.374;2023-01-27T12:21:14;93602.50;;;6.06;56.17
27958;BME280;15295;42.658;23.374;2023-01-27T12:23:50;93613.31;;;6.17;56.19
27958;BME280;15295;42.658;23.374;2023-01-27T12:26:30;93607.50;;;6.18;56.17
27958;BME280;15295;42.658;23.374;2023-01-27T12:29:11;93615.25;;;6.20;55.96
27958;BME280;15295;42.658;23.374;2023-01-27T12:31:47;93617.56;;;6.21;55.84
27958;BME280;15295;42.658;23.374;2023-01-27T12:34:27;93610.97;;;6.26;56.08
27958;BME280;15295;42.658;23.374;2023-01-27T12:36:55;93591.66;;;6.13;56.07
27958;BME280;15295;42.658;23.374;2023-01-27T12:39:50;93613.69;;;6.26;55.92
27958;BME280;15295;42.658;23.374;2023-01-27T12:42:48;93606.69;;;6.25;55.89
27958;BME280;15295;42.658;23.374;2023-01-27T12:45:25;93608.66;;;6.28;56.08
27958;BME280;15295;42.658;23.374;2023-01-27T12:47:59;93608.63;;;6.24;55.93
27958;BME280;15295;42.658;23.374;2023-01-27T12:50:27;93604.78;;;6.22;55.75
27958;BME280;15295;42.658;23.374;2023-01-27T12:55:32;93592.81;;;6.05;56.36
27958;BME280;15295;42.658;23.374;2023-01-27T12:57:59;93570.78;;;5.93;56.46
27958;BME280;15295;42.658;23.374;2023-01-27T13:00:25;93606.34;;;6.19;56.66
27958;BME280;15295;42.658;23.374;2023-01-27T13:03:01;93595.84;;;6.25;56.95
27958;BME280;15295;42.658;23.374;2023-01-27T13:05:27;93587.31;;;6.27;56.65
27958;BME280;15295;42.658;23.374;2023-01-27T13:07:58;93591.19;;;6.33;56.29
27958;BME280;15295;42.658;23.374;2023-01-27T13:10:25;93602.78;;;6.37;56.16
27958;BME280;15295;42.658;23.374;2023-01-27T13:12:58;93604.31;;;6.45;56.12
27958;BME280;15295;42.658;23.374;2023-01-27T13:15:28;93609.72;;;6.48;56.23
27958;BME280;15295;42.658;23.374;2023-01-27T13:17:56;93605.81;;;6.53;56.22
27958;BME280;15295;42.658;23.374;2023-01-27T13:20:32;93594.59;;;6.47;56.02
27958;BME280;15295;42.658;23.374;2023-01-27T13:23:06;93591.53;;;6.38;55.72
27958;BME280;15295;42.658;23.374;2023-01-27T13:25:44;93610.91;;;6.47;55.80
27958;BME280;15295;42.658;23.374;2023-01-27T13:28:30;93612.06;;;6.50;56.15
27958;BME280;15295;42.658;23.374;2023-01-27T13:31:06;93610.16;;;6.36;55.81
27958;BME280;15295;42.658;23.374;2023-01-27T13:33:54;93617.13;;;6.34;56.27
27958;BME280;15295;42.658;23.374;2023-01-27T13:41:50;93620.66;;;6.31;56.54
27958;BME280;15295;42.658;23.374;2023-01-27T13:47:11;93614.03;;;6.32;56.65
27958;BME280;15295;42.658;23.374;2023-01-27T13:49:43;93617.56;;;6.29;56.87
27958;BME280;15295;42.658;23.374;2023-01-27T13:52:10;93623.75;;;6.33;56.84
27958;BME280;15295;42.658;23.374;2023-01-27T13:54:37;93617.16;;;6.30;56.55
27958;BME280;15295;42.658;23.374;2023-01-27T13:57:24;93616.44;;;6.15;56.49
27958;BME280;15295;42.658;23.374;2023-01-27T14:00:15;93617.97;;;6.16;56.65
27958;BME280;15295;42.658;23.374;2023-01-27T14:05:27;93635.81;;;6.17;56.67
27958;BME280;15295;42.658;23.374;2023-01-27T14:08:19;93634.25;;;6.20;56.72
27958;BME280;15295;42.658;23.374;2023-01-27T14:16:14;93628.00;;;6.30;56.82
27958;BME280;15295;42.658;23.374;2023-01-27T14:18:56;93641.56;;;6.37;56.73
27958;BME280;15295;42.658;23.374;2023-01-27T14:21:38;93641.16;;;6.39;55.59
27958;BME280;15295;42.658;23.374;2023-01-27T14:24:32;93640.41;;;6.35;55.88
27958;BME280;15295;42.658;23.374;2023-01-27T14:38:28;93642.75;;;6.26;55.57
27958;BME280;15295;42.658;23.374;2023-01-27T14:46:22;93620.34;;;6.04;55.67
27958;BME280;15295;42.658;23.374;2023-01-27T14:49:12;93647.78;;;6.23;55.84
27958;BME280;15295;42.658;23.374;2023-01-27T15:02:50;93662.91;;;6.21;55.80
27958;BME280;15295;42.658;23.374;2023-01-27T15:05:33;93663.69;;;6.21;55.81
27958;BME280;15295;42.658;23.374;2023-01-27T15:10:32;93666.41;;;6.21;55.80
27958;BME280;15295;42.658;23.374;2023-01-27T15:16:54;93674.53;;;6.29;55.67
27958;BME280;15295;42.658;23.374;2023-01-27T15:19:37;93677.63;;;6.23;55.50
27958;BME280;15295;42.658;23.374;2023-01-27T15:22:31;93647.47;;;6.00;55.75
27958;BME280;15295;42.658;23.374;2023-01-27T15:25:20;93700.13;;;6.17;55.84
27958;BME280;15295;42.658;23.374;2023-01-27T15:27:50;93684.63;;;6.14;55.76
27958;BME280;15295;42.658;23.374;2023-01-27T15:30:29;93680.75;;;6.15;56.02
27958;BME280;15295;42.658;23.374;2023-01-27T15:32:55;93684.25;;;6.12;55.53
27958;BME280;15295;42.658;23.374;2023-01-27T15:40:24;93678.44;;;6.06;55.48
27958;BME280;15295;42.658;23.374;2023-01-27T15:43:00;93681.53;;;6.08;55.60